sensor_id;sensor_type;location;lat;lon;timestamp;P1;durP1;ratioP1;P2;durP2;ratioP2
25045;SDS011;13044;49.304;12.840;2023-03-01T00:01:18;34.17;;;18.15;;
25045;SDS011;13044;49.304;12.840;2023-03-01T00:03:48;36.83;;;19.67;;
25045;SDS011;13044;49.304;12.840;2023-03-01T00:06:16;33.53;;;19.08;;
25045;SDS011;13044;49.304;12.840;2023-03-01T00:08:44;32.53;;;18.15;;
25045;SDS011;13044;49.304;12.840;2023-03-01T00:11:16;34.35;;;18.60;;
25045;SDS011;13044;49.304;12.840;2023-03-01T00:13:50;32.75;;;18.67;;
25045;SDS011;13044;49.304;12.840;2023-03-01T00:16:23;36.88;;;18.67;;
25045;SDS011;13044;49.304;12.840;2023-03-01T00:19:00;35.00;;;18.58;;
25045;SDS011;13044;49.304;12.840;2023-03-01T00:21:28;39.40;;;20.75;;
25045;SDS011;13044;49.304;12.840;2023-03-01T00:23:56;35.40;;;19.48;;
25045;SDS011;13044;49.304;12.840;2023-03-01T00:26:24;34.78;;;19.45;;
25045;SDS011;13044;49.304;12.840;2023-03-01T00:28:52;33.65;;;17.63;;
25045;SDS011;13044;49.304;12.840;2023-03-01T00:31:22;35.17;;;19.58;;
25045;SDS011;13044;49.304;12.840;2023-03-01T00:33:55;37.63;;;17.92;;
25045;SDS011;13044;49.304;12.840;2023-03-01T00:36:25;35.42;;;18.85;;
25045;SDS011;13044;49.304;12.840;2023-03-01T00:38:56;34.78;;;18.42;;
25045;SDS011;13044;49.304;12.840;2023-03-01T00:41:23;34.08;;;18.52;;
25045;SDS011;13044;49.304;12.840;2023-03-01T00:43:52;36.33;;;19.65;;
25045;SDS011;13044;49.304;12.840;2023-03-01T00:46:21;35.75;;;19.67;;
25045;SDS011;13044;49.304;12.840;2023-03-01T00:48:51;37.10;;;20.23;;
25045;SDS011;13044;49.304;12.840;2023-03-01T00:51:25;39.53;;;19.17;;
25045;SDS011;13044;49.304;12.840;2023-03-01T00:53:54;34.60;;;18.48;;
25045;SDS011;13044;49.304;12.840;2023-03-01T00:56:24;37.22;;;19.23;;
25045;SDS011;13044;49.304;12.840;2023-03-01T00:58:51;35.05;;;20.00;;
25045;SDS011;13044;49.304;12.840;2023-03-01T01:01:19;39.33;;;19.80;;
25045;SDS011;13044;49.304;12.840;2023-03-01T01:03:51;35.15;;;19.17;;
25045;SDS011;13044;49.304;12.840;2023-03-01T01:06:24;42.53;;;19.90;;
25045;SDS011;13044;49.304;12.840;2023-03-01T01:08:58;39.88;;;19.67;;
25045;SDS011;13044;49.304;12.840;2023-03-01T01:11:28;34.05;;;19.27;;
25045;SDS011;13044;49.304;12.840;2023-03-01T01:13:56;36.40;;;20.90;;
25045;SDS011;13044;49.304;12.840;2023-03-01T01:16:25;38.25;;;20.83;;
25045;SDS011;13044;49.304;12.840;2023-03-01T01:18:55;39.78;;;20.45;;
25045;SDS011;13044;49.304;12.840;2023-03-01T01:21:23;37.22;;;20.25;;
25045;SDS011;13044;49.304;12.840;2023-03-01T01:23:51;41.47;;;20.50;;
25045;SDS011;13044;49.304;12.840;2023-03-01T01:26:23;37.75;;;19.45;;
25045;SDS011;13044;49.304;12.840;2023-03-01T01:28:56;43.35;;;21.60;;
25045;SDS011;13044;49.304;12.840;2023-03-01T01:31:24;45.42;;;22.13;;
25045;SDS011;13044;49.304;12.840;2023-03-01T01:33:53;42.67;;;21.45;;
25045;SDS011;13044;49.304;12.840;2023-03-01T01:36:21;39.63;;;21.35;;
25045;SDS011;13044;49.304;12.840;2023-03-01T01:38:48;38.90;;;21.02;;
25045;SDS011;13044;49.304;12.840;2023-03-01T01:41:15;44.65;;;21.10;;
25045;SDS011;13044;49.304;12.840;2023-03-01T01:43:45;38.47;;;21.02;;
25045;SDS011;13044;49.304;12.840;2023-03-01T01:46:28;33.13;;;16.63;;
25045;SDS011;13044;49.304;12.840;2023-03-01T01:49:00;43.50;;;21.92;;
25045;SDS011;13044;49.304;12.840;2023-03-01T01:51:38;43.38;;;22.13;;
25045;SDS011;13044;49.304;12.840;2023-03-01T01:54:10;44.15;;;22.85;;
25045;SDS011;13044;49.304;12.840;2023-03-01T01:56:47;42.25;;;22.45;;
25045;SDS011;13044;49.304;12.840;2023-03-01T01:59:19;45.15;;;22.35;;
25045;SDS011;13044;49.304;12.840;2023-03-01T02:01:51;41.63;;;22.10;;
25045;SDS011;13044;49.304;12.840;2023-03-01T02:04:19;44.80;;;23.13;;
25045;SDS011;13044;49.304;12.840;2023-03-01T02:06:58;49.10;;;23.88;;
25045;SDS011;13044;49.304;12.840;2023-03-01T02:09:48;43.38;;;22.27;;
25045;SDS011;13044;49.304;12.840;2023-03-01T02:12:19;44.60;;;23.02;;
25045;SDS011;13044;49.304;12.840;2023-03-01T02:14:50;44.05;;;22.77;;
25045;SDS011;13044;49.304;12.840;2023-03-01T02:17:17;43.65;;;22.70;;
25045;SDS011;13044;49.304;12.840;2023-03-01T02:23:00;46.55;;;23.20;;
25045;SDS011;13044;49.304;12.840;2023-03-01T02:25:32;44.55;;;23.65;;
25045;SDS011;13044;49.304;12.840;2023-03-01T02:30:40;47.75;;;23.92;;
25045;SDS011;13044;49.304;12.840;2023-03-01T02:33:29;45.17;;;22.35;;
25045;SDS011;13044;49.304;12.840;2023-03-01T02:36:00;42.83;;;22.40;;
25045;SDS011;13044;49.304;12.840;2023-03-01T02:38:31;43.75;;;22.13;;
25045;SDS011;13044;49.304;12.840;2023-03-01T02:40:58;64.85;;;23.17;;
25045;SDS011;13044;49.304;12.840;2023-03-01T02:43:29;44.15;;;22.58;;
25045;SDS011;13044;49.304;12.840;2023-03-01T02:46:01;45.42;;;23.25;;
25045;SDS011;13044;49.304;12.840;2023-03-01T02:48:43;46.15;;;23.33;;
25045;SDS011;13044;49.304;12.840;2023-03-01T02:54:07;45.90;;;23.02;;
25045;SDS011;13044;49.304;12.840;2023-03-01T02:56:48;46.65;;;24.45;;
25045;SDS011;13044;49.304;12.840;2023-03-01T02:59:20;48.78;;;24.05;;
25045;SDS011;13044;49.304;12.840;2023-03-01T03:01:51;47.85;;;23.67;;
25045;SDS011;13044;49.304;12.840;2023-03-01T03:04:18;45.05;;;24.40;;
25045;SDS011;13044;49.304;12.840;2023-03-01T03:06:47;45.60;;;23.73;;
25045;SDS011;13044;49.304;12.840;2023-03-01T03:09:16;47.97;;;23.85;;
25045;SDS011;13044;49.304;12.840;2023-03-01T03:11:45;48.13;;;22.80;;
25045;SDS011;13044;49.304;12.840;2023-03-01T03:14:12;47.65;;;23.55;;
25045;SDS011;13044;49.304;12.840;2023-03-01T03:16:43;48.78;;;23.45;;
25045;SDS011;13044;49.304;12.840;2023-03-01T03:19:13;49.20;;;23.65;;
25045;SDS011;13044;49.304;12.840;2023-03-01T03:21:40;43.05;;;22.73;;
25045;SDS011;13044;49.304;12.840;2023-03-01T03:24:07;44.70;;;23.58;;
25045;SDS011;13044;49.304;12.840;2023-03-01T03:26:34;46.08;;;24.17;;
25045;SDS011;13044;49.304;12.840;2023-03-01T03:29:01;45.40;;;22.80;;
25045;SDS011;13044;49.304;12.840;2023-03-01T03:31:28;47.42;;;23.55;;
25045;SDS011;13044;49.304;12.840;2023-03-01T03:33:55;48.42;;;23.35;;
25045;SDS011;13044;49.304;12.840;2023-03-01T03:36:23;46.60;;;24.48;;
25045;SDS011;13044;49.304;12.840;2023-03-01T03:38:50;45.55;;;23.73;;
25045;SDS011;13044;49.304;12.840;2023-03-01T03:41:17;44.13;;;23.00;;
25045;SDS011;13044;49.304;12.840;2023-03-01T03:43:44;47.67;;;24.00;;
25045;SDS011;13044;49.304;12.840;2023-03-01T03:46:11;45.85;;;23.60;;
25045;SDS011;13044;49.304;12.840;2023-03-01T03:48:40;44.72;;;24.27;;
25045;SDS011;13044;49.304;12.840;2023-03-01T03:51:11;47.17;;;23.38;;
25045;SDS011;13044;49.304;12.840;2023-03-01T03:53:43;44.10;;;23.17;;
25045;SDS011;13044;49.304;12.840;2023-03-01T03:56:11;49.60;;;22.77;;
25045;SDS011;13044;49.304;12.840;2023-03-01T03:58:38;41.00;;;22.42;;
25045;SDS011;13044;49.304;12.840;2023-03-01T04:01:05;46.33;;;25.33;;
25045;SDS011;13044;49.304;12.840;2023-03-01T04:03:33;46.53;;;24.35;;
25045;SDS011;13044;49.304;12.840;2023-03-01T04:06:01;47.33;;;24.55;;
25045;SDS011;13044;49.304;12.840;2023-03-01T04:08:30;45.83;;;24.90;;
25045;SDS011;13044;49.304;12.840;2023-03-01T04:10:58;48.53;;;24.52;;
25045;SDS011;13044;49.304;12.840;2023-03-01T04:13:47;47.85;;;24.23;;
25045;SDS011;13044;49.304;12.840;2023-03-01T04:16:15;48.63;;;24.67;;
25045;SDS011;13044;49.304;12.840;2023-03-01T04:18:42;46.42;;;22.58;;
25045;SDS011;13044;49.304;12.840;2023-03-01T04:21:09;50.25;;;24.55;;
25045;SDS011;13044;49.304;12.840;2023-03-01T04:23:37;46.10;;;25.02;;
25045;SDS011;13044;49.304;12.840;2023-03-01T04:26:06;48.50;;;24.90;;
25045;SDS011;13044;49.304;12.840;2023-03-01T04:28:35;51.17;;;24.98;;
25045;SDS011;13044;49.304;12.840;2023-03-01T04:31:07;49.03;;;25.43;;
25045;SDS011;13044;49.304;12.840;2023-03-01T04:33:50;47.92;;;23.85;;
25045;SDS011;13044;49.304;12.840;2023-03-01T04:36:22;46.72;;;24.63;;
25045;SDS011;13044;49.304;12.840;2023-03-01T04:38:52;51.00;;;24.90;;
25045;SDS011;13044;49.304;12.840;2023-03-01T04:41:19;51.88;;;24.23;;
25045;SDS011;13044;49.304;12.840;2023-03-01T04:43:49;48.67;;;25.27;;
25045;SDS011;13044;49.304;12.840;2023-03-01T04:46:17;54.45;;;26.58;;
25045;SDS011;13044;49.304;12.840;2023-03-01T04:48:46;51.97;;;26.85;;
25045;SDS011;13044;49.304;12.840;2023-03-01T04:51:14;54.53;;;26.33;;
25045;SDS011;13044;49.304;12.840;2023-03-01T04:53:43;52.35;;;26.60;;
25045;SDS011;13044;49.304;12.840;2023-03-01T04:56:11;53.25;;;26.00;;
25045;SDS011;13044;49.304;12.840;2023-03-01T04:58:40;53.53;;;26.10;;
25045;SDS011;13044;49.304;12.840;2023-03-01T05:01:08;51.92;;;26.38;;
25045;SDS011;13044;49.304;12.840;2023-03-01T05:03:43;53.97;;;26.52;;
25045;SDS011;13044;49.304;12.840;2023-03-01T05:06:13;48.65;;;25.67;;
25045;SDS011;13044;49.304;12.840;2023-03-01T05:08:43;47.17;;;25.45;;
25045;SDS011;13044;49.304;12.840;2023-03-01T05:11:10;51.70;;;25.67;;
25045;SDS011;13044;49.304;12.840;2023-03-01T05:13:38;56.38;;;27.05;;
25045;SDS011;13044;49.304;12.840;2023-03-01T05:16:06;58.22;;;27.20;;
25045;SDS011;13044;49.304;12.840;2023-03-01T05:18:37;47.70;;;22.40;;
25045;SDS011;13044;49.304;12.840;2023-03-01T05:21:06;52.63;;;25.52;;
25045;SDS011;13044;49.304;12.840;2023-03-01T05:23:35;54.08;;;26.60;;
25045;SDS011;13044;49.304;12.840;2023-03-01T05:26:02;53.83;;;25.92;;
25045;SDS011;13044;49.304;12.840;2023-03-01T05:28:36;51.50;;;25.60;;
25045;SDS011;13044;49.304;12.840;2023-03-01T05:31:04;52.47;;;24.90;;
25045;SDS011;13044;49.304;12.840;2023-03-01T05:33:36;54.63;;;26.27;;
25045;SDS011;13044;49.304;12.840;2023-03-01T05:36:05;57.47;;;26.98;;
25045;SDS011;13044;49.304;12.840;2023-03-01T05:38:37;52.95;;;26.30;;
25045;SDS011;13044;49.304;12.840;2023-03-01T05:41:05;58.00;;;27.05;;
25045;SDS011;13044;49.304;12.840;2023-03-01T05:43:43;54.15;;;27.10;;
25045;SDS011;13044;49.304;12.840;2023-03-01T05:46:11;52.92;;;26.55;;
25045;SDS011;13044;49.304;12.840;2023-03-01T05:48:41;57.28;;;27.52;;
25045;SDS011;13044;49.304;12.840;2023-03-01T05:51:08;53.33;;;26.83;;
25045;SDS011;13044;49.304;12.840;2023-03-01T05:53:36;53.47;;;27.10;;
25045;SDS011;13044;49.304;12.840;2023-03-01T05:56:03;60.97;;;28.13;;
25045;SDS011;13044;49.304;12.840;2023-03-01T05:58:32;54.63;;;27.40;;
25045;SDS011;13044;49.304;12.840;2023-03-01T06:00:59;56.70;;;28.50;;
25045;SDS011;13044;49.304;12.840;2023-03-01T06:03:26;58.13;;;28.80;;
25045;SDS011;13044;49.304;12.840;2023-03-01T06:05:57;57.17;;;28.00;;
25045;SDS011;13044;49.304;12.840;2023-03-01T06:08:26;57.85;;;29.48;;
25045;SDS011;13044;49.304;12.840;2023-03-01T06:10:53;54.58;;;26.95;;
25045;SDS011;13044;49.304;12.840;2023-03-01T06:13:21;58.78;;;29.08;;
25045;SDS011;13044;49.304;12.840;2023-03-01T06:15:49;53.90;;;26.98;;
25045;SDS011;13044;49.304;12.840;2023-03-01T06:18:16;60.00;;;28.98;;
25045;SDS011;13044;49.304;12.840;2023-03-01T06:20:43;58.08;;;29.42;;
25045;SDS011;13044;49.304;12.840;2023-03-01T06:23:10;56.22;;;27.77;;
25045;SDS011;13044;49.304;12.840;2023-03-01T06:25:37;59.40;;;28.80;;
25045;SDS011;13044;49.304;12.840;2023-03-01T06:28:04;52.25;;;26.30;;
25045;SDS011;13044;49.304;12.840;2023-03-01T06:30:32;58.22;;;28.42;;
25045;SDS011;13044;49.304;12.840;2023-03-01T06:33:00;57.28;;;28.85;;
25045;SDS011;13044;49.304;12.840;2023-03-01T06:35:29;55.88;;;28.42;;
25045;SDS011;13044;49.304;12.840;2023-03-01T06:37:59;54.47;;;27.15;;
25045;SDS011;13044;49.304;12.840;2023-03-01T06:40:28;58.17;;;28.92;;
25045;SDS011;13044;49.304;12.840;2023-03-01T06:42:57;59.95;;;27.95;;
25045;SDS011;13044;49.304;12.840;2023-03-01T06:45:25;59.55;;;29.80;;
25045;SDS011;13044;49.304;12.840;2023-03-01T06:48:01;63.90;;;30.88;;
25045;SDS011;13044;49.304;12.840;2023-03-01T06:50:32;54.58;;;27.45;;
25045;SDS011;13044;49.304;12.840;2023-03-01T06:53:01;52.17;;;27.65;;
25045;SDS011;13044;49.304;12.840;2023-03-01T06:55:28;55.78;;;27.70;;
25045;SDS011;13044;49.304;12.840;2023-03-01T06:57:56;54.95;;;28.40;;
25045;SDS011;13044;49.304;12.840;2023-03-01T07:00:26;56.88;;;29.42;;
25045;SDS011;13044;49.304;12.840;2023-03-01T07:02:53;58.72;;;29.00;;
25045;SDS011;13044;49.304;12.840;2023-03-01T07:05:25;68.93;;;30.08;;
25045;SDS011;13044;49.304;12.840;2023-03-01T07:07:56;61.08;;;29.30;;
25045;SDS011;13044;49.304;12.840;2023-03-01T07:10:23;56.70;;;29.02;;
25045;SDS011;13044;49.304;12.840;2023-03-01T07:12:50;56.38;;;29.52;;
25045;SDS011;13044;49.304;12.840;2023-03-01T07:15:21;59.78;;;28.90;;
25045;SDS011;13044;49.304;12.840;2023-03-01T07:17:48;56.45;;;28.08;;
25045;SDS011;13044;49.304;12.840;2023-03-01T07:20:17;58.22;;;29.55;;
25045;SDS011;13044;49.304;12.840;2023-03-01T07:22:51;52.08;;;28.95;;
25045;SDS011;13044;49.304;12.840;2023-03-01T07:25:19;55.53;;;28.65;;
25045;SDS011;13044;49.304;12.840;2023-03-01T07:27:52;55.30;;;28.50;;
25045;SDS011;13044;49.304;12.840;2023-03-01T07:30:21;54.17;;;28.30;;
25045;SDS011;13044;49.304;12.840;2023-03-01T07:32:52;58.65;;;29.45;;
25045;SDS011;13044;49.304;12.840;2023-03-01T07:35:22;57.47;;;28.45;;
25045;SDS011;13044;49.304;12.840;2023-03-01T07:37:51;58.28;;;28.80;;
25045;SDS011;13044;49.304;12.840;2023-03-01T07:40:19;55.65;;;28.50;;
25045;SDS011;13044;49.304;12.840;2023-03-01T07:42:47;55.00;;;29.17;;
25045;SDS011;13044;49.304;12.840;2023-03-01T07:45:17;54.28;;;28.45;;
25045;SDS011;13044;49.304;12.840;2023-03-01T07:47:44;58.42;;;29.70;;
25045;SDS011;13044;49.304;12.840;2023-03-01T07:50:11;58.13;;;28.38;;
25045;SDS011;13044;49.304;12.840;2023-03-01T07:52:40;56.58;;;27.73;;
25045;SDS011;13044;49.304;12.840;2023-03-01T07:55:07;54.75;;;27.50;;
25045;SDS011;13044;49.304;12.840;2023-03-01T07:57:35;56.42;;;28.63;;
25045;SDS011;13044;49.304;12.840;2023-03-01T08:00:03;52.63;;;27.55;;
25045;SDS011;13044;49.304;12.840;2023-03-01T08:02:31;47.00;;;26.20;;
25045;SDS011;13044;49.304;12.840;2023-03-01T08:04:59;53.05;;;28.00;;
25045;SDS011;13044;49.304;12.840;2023-03-01T08:07:27;55.33;;;28.77;;
25045;SDS011;13044;49.304;12.840;2023-03-01T08:09:54;55.53;;;28.58;;
25045;SDS011;13044;49.304;12.840;2023-03-01T08:12:21;59.00;;;27.90;;
25045;SDS011;13044;49.304;12.840;2023-03-01T08:14:49;53.58;;;27.35;;
25045;SDS011;13044;49.304;12.840;2023-03-01T08:17:17;61.50;;;30.15;;
25045;SDS011;13044;49.304;12.840;2023-03-01T08:19:44;57.88;;;29.58;;
25045;SDS011;13044;49.304;12.840;2023-03-01T08:22:12;61.08;;;29.48;;
25045;SDS011;13044;49.304;12.840;2023-03-01T08:24:40;53.80;;;27.48;;
25045;SDS011;13044;49.304;12.840;2023-03-01T08:27:08;54.05;;;28.15;;
25045;SDS011;13044;49.304;12.840;2023-03-01T08:29:36;60.40;;;29.90;;
25045;SDS011;13044;49.304;12.840;2023-03-01T08:32:02;54.72;;;28.75;;
25045;SDS011;13044;49.304;12.840;2023-03-01T08:34:31;58.97;;;28.95;;
25045;SDS011;13044;49.304;12.840;2023-03-01T08:37:01;53.92;;;27.75;;
25045;SDS011;13044;49.304;12.840;2023-03-01T08:39:31;55.22;;;28.75;;
25045;SDS011;13044;49.304;12.840;2023-03-01T08:41:58;61.22;;;29.42;;
25045;SDS011;13044;49.304;12.840;2023-03-01T08:44:27;58.25;;;28.65;;
25045;SDS011;13044;49.304;12.840;2023-03-01T08:46:53;59.20;;;29.85;;
25045;SDS011;13044;49.304;12.840;2023-03-01T08:49:21;55.20;;;29.30;;
25045;SDS011;13044;49.304;12.840;2023-03-01T08:51:48;53.30;;;28.83;;
25045;SDS011;13044;49.304;12.840;2023-03-01T08:54:17;60.05;;;29.55;;
25045;SDS011;13044;49.304;12.840;2023-03-01T08:56:47;51.33;;;27.70;;
25045;SDS011;13044;49.304;12.840;2023-03-01T08:59:15;57.60;;;29.02;;
25045;SDS011;13044;49.304;12.840;2023-03-01T09:01:44;52.08;;;27.98;;
25045;SDS011;13044;49.304;12.840;2023-03-01T09:04:11;47.50;;;27.25;;
25045;SDS011;13044;49.304;12.840;2023-03-01T09:06:40;48.28;;;27.92;;
25045;SDS011;13044;49.304;12.840;2023-03-01T09:09:12;51.75;;;28.90;;
25045;SDS011;13044;49.304;12.840;2023-03-01T09:11:44;51.67;;;27.38;;
25045;SDS011;13044;49.304;12.840;2023-03-01T09:14:13;51.95;;;27.65;;
25045;SDS011;13044;49.304;12.840;2023-03-01T09:16:41;47.88;;;27.63;;
25045;SDS011;13044;49.304;12.840;2023-03-01T09:19:08;49.45;;;26.70;;
25045;SDS011;13044;49.304;12.840;2023-03-01T09:21:35;49.03;;;26.88;;
25045;SDS011;13044;49.304;12.840;2023-03-01T09:24:08;53.67;;;27.17;;
25045;SDS011;13044;49.304;12.840;2023-03-01T09:26:40;49.08;;;27.35;;
25045;SDS011;13044;49.304;12.840;2023-03-01T09:29:07;50.58;;;27.77;;
25045;SDS011;13044;49.304;12.840;2023-03-01T09:31:35;49.33;;;26.25;;
25045;SDS011;13044;49.304;12.840;2023-03-01T09:34:02;50.35;;;27.48;;
25045;SDS011;13044;49.304;12.840;2023-03-01T09:36:30;50.42;;;26.33;;
25045;SDS011;13044;49.304;12.840;2023-03-01T09:38:59;44.83;;;26.67;;
25045;SDS011;13044;49.304;12.840;2023-03-01T09:41:36;51.53;;;27.40;;
25045;SDS011;13044;49.304;12.840;2023-03-01T09:47:00;47.60;;;27.00;;
25045;SDS011;13044;49.304;12.840;2023-03-01T09:49:30;46.55;;;27.50;;
25045;SDS011;13044;49.304;12.840;2023-03-01T09:54:51;48.63;;;26.45;;
25045;SDS011;13044;49.304;12.840;2023-03-01T09:57:26;52.78;;;26.45;;
25045;SDS011;13044;49.304;12.840;2023-03-01T10:00:25;50.65;;;27.75;;
25045;SDS011;13044;49.304;12.840;2023-03-01T10:06:02;45.00;;;25.75;;
25045;SDS011;13044;49.304;12.840;2023-03-01T10:09:12;46.75;;;26.13;;
25045;SDS011;13044;49.304;12.840;2023-03-01T10:11:52;46.38;;;26.50;;
25045;SDS011;13044;49.304;12.840;2023-03-01T10:17:37;41.67;;;23.60;;
25045;SDS011;13044;49.304;12.840;2023-03-01T10:22:47;49.10;;;25.48;;
25045;SDS011;13044;49.304;12.840;2023-03-01T10:25:23;44.95;;;25.75;;
25045;SDS011;13044;49.304;12.840;2023-03-01T10:31:35;44.75;;;23.83;;
25045;SDS011;13044;49.304;12.840;2023-03-01T10:36:55;42.75;;;22.67;;
25045;SDS011;13044;49.304;12.840;2023-03-01T10:39:27;43.33;;;22.98;;
25045;SDS011;13044;49.304;12.840;2023-03-01T10:41:59;38.28;;;22.75;;
25045;SDS011;13044;49.304;12.840;2023-03-01T10:44:36;44.45;;;23.15;;
25045;SDS011;13044;49.304;12.840;2023-03-01T10:47:16;37.70;;;22.48;;
25045;SDS011;13044;49.304;12.840;2023-03-01T10:50:02;36.33;;;21.27;;
25045;SDS011;13044;49.304;12.840;2023-03-01T10:52:34;36.03;;;20.75;;
25045;SDS011;13044;49.304;12.840;2023-03-01T10:57:40;35.30;;;20.80;;
25045;SDS011;13044;49.304;12.840;2023-03-01T11:00:15;36.30;;;21.90;;
25045;SDS011;13044;49.304;12.840;2023-03-01T11:06:03;34.58;;;20.38;;
25045;SDS011;13044;49.304;12.840;2023-03-01T11:08:46;40.40;;;21.00;;
25045;SDS011;13044;49.304;12.840;2023-03-01T11:11:49;37.05;;;21.33;;
25045;SDS011;13044;49.304;12.840;2023-03-01T11:17:10;34.42;;;19.85;;
25045;SDS011;13044;49.304;12.840;2023-03-01T11:22:45;31.10;;;19.80;;
25045;SDS011;13044;49.304;12.840;2023-03-01T11:25:23;35.03;;;19.98;;
25045;SDS011;13044;49.304;12.840;2023-03-01T11:27:55;35.50;;;20.13;;
25045;SDS011;13044;49.304;12.840;2023-03-01T11:30:27;35.90;;;21.45;;
25045;SDS011;13044;49.304;12.840;2023-03-01T11:36:16;37.22;;;20.67;;
25045;SDS011;13044;49.304;12.840;2023-03-01T11:38:56;35.97;;;20.50;;
25045;SDS011;13044;49.304;12.840;2023-03-01T11:41:34;33.58;;;20.17;;
25045;SDS011;13044;49.304;12.840;2023-03-01T12:01:37;33.08;;;19.67;;
25045;SDS011;13044;49.304;12.840;2023-03-01T12:07:46;33.97;;;19.08;;
25045;SDS011;13044;49.304;12.840;2023-03-01T12:20:18;36.17;;;19.63;;
25045;SDS011;13044;49.304;12.840;2023-03-01T12:25:52;33.42;;;20.05;;
25045;SDS011;13044;49.304;12.840;2023-03-01T12:39:55;33.78;;;19.33;;
25045;SDS011;13044;49.304;12.840;2023-03-01T12:42:55;34.53;;;20.60;;
25045;SDS011;13044;49.304;12.840;2023-03-01T12:45:40;58.90;;;20.20;;
25045;SDS011;13044;49.304;12.840;2023-03-01T12:48:29;33.47;;;17.98;;
25045;SDS011;13044;49.304;12.840;2023-03-01T12:51:05;31.63;;;18.25;;
25045;SDS011;13044;49.304;12.840;2023-03-01T12:53:44;29.10;;;18.83;;
25045;SDS011;13044;49.304;12.840;2023-03-01T12:56:23;35.35;;;18.95;;
25045;SDS011;13044;49.304;12.840;2023-03-01T12:58:59;32.20;;;18.10;;
25045;SDS011;13044;49.304;12.840;2023-03-01T13:01:53;29.33;;;18.45;;
25045;SDS011;13044;49.304;12.840;2023-03-01T13:04:48;30.05;;;17.83;;
25045;SDS011;13044;49.304;12.840;2023-03-01T13:08:01;35.13;;;18.45;;
25045;SDS011;13044;49.304;12.840;2023-03-01T13:10:52;31.17;;;18.77;;
25045;SDS011;13044;49.304;12.840;2023-03-01T13:13:26;32.90;;;17.80;;
25045;SDS011;13044;49.304;12.840;2023-03-01T13:15:55;28.77;;;17.52;;
25045;SDS011;13044;49.304;12.840;2023-03-01T13:20:52;32.25;;;18.35;;
25045;SDS011;13044;49.304;12.840;2023-03-01T13:23:31;37.47;;;20.08;;
25045;SDS011;13044;49.304;12.840;2023-03-01T13:26:09;37.15;;;20.15;;
25045;SDS011;13044;49.304;12.840;2023-03-01T13:33:46;37.92;;;18.80;;
25045;SDS011;13044;49.304;12.840;2023-03-01T13:47:02;29.95;;;18.20;;
25045;SDS011;13044;49.304;12.840;2023-03-01T13:49:51;30.10;;;19.50;;
25045;SDS011;13044;49.304;12.840;2023-03-01T13:52:40;31.92;;;18.70;;
25045;SDS011;13044;49.304;12.840;2023-03-01T13:55:21;29.95;;;18.90;;
25045;SDS011;13044;49.304;12.840;2023-03-01T13:58:14;30.45;;;19.50;;
25045;SDS011;13044;49.304;12.840;2023-03-01T14:03:33;30.65;;;17.42;;
25045;SDS011;13044;49.304;12.840;2023-03-01T14:06:12;37.08;;;19.98;;
25045;SDS011;13044;49.304;12.840;2023-03-01T14:08:47;29.58;;;18.65;;
25045;SDS011;13044;49.304;12.840;2023-03-01T14:17:18;32.17;;;19.63;;
25045;SDS011;13044;49.304;12.840;2023-03-01T14:19:59;33.60;;;19.50;;
25045;SDS011;13044;49.304;12.840;2023-03-01T14:22:40;33.97;;;19.85;;
25045;SDS011;13044;49.304;12.840;2023-03-01T14:25:22;31.85;;;20.23;;
25045;SDS011;13044;49.304;12.840;2023-03-01T14:30:56;33.97;;;19.10;;
25045;SDS011;13044;49.304;12.840;2023-03-01T14:33:28;26.60;;;17.15;;
25045;SDS011;13044;49.304;12.840;2023-03-01T14:36:03;31.15;;;19.55;;
25045;SDS011;13044;49.304;12.840;2023-03-01T14:38:46;28.48;;;18.55;;
25045;SDS011;13044;49.304;12.840;2023-03-01T14:41:15;33.10;;;18.98;;
25045;SDS011;13044;49.304;12.840;2023-03-01T14:43:51;32.03;;;18.80;;
25045;SDS011;13044;49.304;12.840;2023-03-01T14:46:37;32.22;;;19.40;;
25045;SDS011;13044;49.304;12.840;2023-03-01T14:49:11;31.23;;;19.02;;
25045;SDS011;13044;49.304;12.840;2023-03-01T14:51:58;30.38;;;18.63;;
25045;SDS011;13044;49.304;12.840;2023-03-01T14:54:43;30.60;;;18.60;;
25045;SDS011;13044;49.304;12.840;2023-03-01T14:57:16;30.67;;;19.02;;
25045;SDS011;13044;49.304;12.840;2023-03-01T14:59:49;32.17;;;19.17;;
25045;SDS011;13044;49.304;12.840;2023-03-01T15:02:22;32.70;;;19.20;;
25045;SDS011;13044;49.304;12.840;2023-03-01T15:04:52;30.48;;;18.67;;
25045;SDS011;13044;49.304;12.840;2023-03-01T15:07:37;34.13;;;20.23;;
25045;SDS011;13044;49.304;12.840;2023-03-01T15:10:14;33.17;;;18.98;;
25045;SDS011;13044;49.304;12.840;2023-03-01T15:12:48;47.20;;;25.55;;
25045;SDS011;13044;49.304;12.840;2023-03-01T15:15:41;40.45;;;20.20;;
25045;SDS011;13044;49.304;12.840;2023-03-01T15:20:42;33.15;;;19.02;;
25045;SDS011;13044;49.304;12.840;2023-03-01T15:23:17;34.80;;;19.42;;
25045;SDS011;13044;49.304;12.840;2023-03-01T15:25:54;29.70;;;18.20;;
25045;SDS011;13044;49.304;12.840;2023-03-01T15:28:25;31.77;;;18.60;;
25045;SDS011;13044;49.304;12.840;2023-03-01T15:31:02;34.25;;;19.58;;
25045;SDS011;13044;49.304;12.840;2023-03-01T15:33:43;30.65;;;18.70;;
25045;SDS011;13044;49.304;12.840;2023-03-01T15:39:27;28.77;;;16.95;;
25045;SDS011;13044;49.304;12.840;2023-03-01T15:42:09;38.45;;;22.95;;
25045;SDS011;13044;49.304;12.840;2023-03-01T15:47:41;41.25;;;23.73;;
25045;SDS011;13044;49.304;12.840;2023-03-01T15:50:30;37.40;;;22.38;;
25045;SDS011;13044;49.304;12.840;2023-03-01T15:53:06;37.92;;;22.85;;
25045;SDS011;13044;49.304;12.840;2023-03-01T15:55:38;36.78;;;22.40;;
25045;SDS011;13044;49.304;12.840;2023-03-01T16:00:45;35.25;;;22.40;;
25045;SDS011;13044;49.304;12.840;2023-03-01T16:03:26;40.17;;;22.42;;
25045;SDS011;13044;49.304;12.840;2023-03-01T16:05:53;34.83;;;21.67;;
25045;SDS011;13044;49.304;12.840;2023-03-01T16:08:20;36.30;;;23.30;;
25045;SDS011;13044;49.304;12.840;2023-03-01T16:10:47;41.33;;;25.55;;
25045;SDS011;13044;49.304;12.840;2023-03-01T16:13:17;60.67;;;33.58;;
25045;SDS011;13044;49.304;12.840;2023-03-01T16:15:45;38.38;;;22.48;;
25045;SDS011;13044;49.304;12.840;2023-03-01T16:18:13;40.53;;;23.08;;
25045;SDS011;13044;49.304;12.840;2023-03-01T16:20:40;38.00;;;21.92;;
25045;SDS011;13044;49.304;12.840;2023-03-01T16:23:07;36.30;;;21.40;;
25045;SDS011;13044;49.304;12.840;2023-03-01T16:25:37;39.10;;;21.85;;
25045;SDS011;13044;49.304;12.840;2023-03-01T16:28:04;37.42;;;21.33;;
25045;SDS011;13044;49.304;12.840;2023-03-01T16:30:35;36.45;;;21.75;;
25045;SDS011;13044;49.304;12.840;2023-03-01T16:33:05;35.40;;;21.20;;
25045;SDS011;13044;49.304;12.840;2023-03-01T16:35:52;33.47;;;21.27;;
25045;SDS011;13044;49.304;12.840;2023-03-01T16:38:19;37.15;;;21.98;;
25045;SDS011;13044;49.304;12.840;2023-03-01T16:40:47;35.67;;;21.15;;
25045;SDS011;13044;49.304;12.840;2023-03-01T16:43:16;40.00;;;24.00;;
25045;SDS011;13044;49.304;12.840;2023-03-01T16:45:44;37.42;;;22.20;;
25045;SDS011;13044;49.304;12.840;2023-03-01T16:48:13;41.55;;;22.98;;